Main page
METAR-TAF:

METAR-TAF

Airports :

Al Qaisumah/Hafr Al Batin Airport

Qaisumah, Saudi Arabia

latitude: 28-19N, longitude: 046-07E, elevation: 358 m

Current weather observation

The report was made 52 minutes ago, at 16:00 UTC
Wind 20 kt from the North/Northwest
Temperature 12°C
Humidity 32%
Pressure 1022 hPa
Visibility: 6000 m
Clear sky

METAR: OEPA 251600Z 33020KT 6000 SKC 12/M04 Q1022 NOSIG

Time: 19:52 (16:52 UTC)

Forecast

The report was made 5 hours and 52 minutes ago, at 11:00 UTC
Forecast valid from 25 at 12 UTC to 26 at 18 UTC
Wind 10 kt from the North/Northwest with gusts up to 20 kt
Visibility: 6000 m
Scattered clouds at a height of 4000 ft
Temporary
from 25 at 12 UTC to 25 at 20 UTC
Visibility: 2000 m
widespread dust, Blowing dust

TAF: OEPA 251100Z 2512/2618 33010G20KT 6000 SCT040 TEMPO 2512/2520 2000 DU BLDU

Weather observations and forecasts of more than 4000 airports (METAR and TAF reports).

The available stations are represented by yellow and red dots on the map.

Hover mouse over dot to see the name of the station.

Then click to see weather observations and forecasts.

To change the map : click on the green buttons with a black cross to zoom in, on the green button with a dash to zoom out, or on the green arrows for adjacent maps.


METAR-TAF: